Terminal Aerodrome Forecast
Issued by NWS

Home | Current Version | Previous Version | Text Only | Print | Product List | Glossary On
Versions: 1 2 3 4 5 6 7 8 9 10 11 12 13 14 15 16 17 18
000
FTUS43 KABR 261334 AAA
TAFMBG
TAF AMD
KMBG 261334Z 2614/2712 14007KT P6SM SCT250
     FM261800 08007KT P6SM -SHRA BKN090
      TEMPO 2618/2619 4SM TS OVC040CB
     FM262100 08008KT P6SM BKN250
     FM270000 08012KT P6SM SHRA VCTS BKN090CB
     FM270400 07008KT P6SM BKN100
     FM271000 05006KT P6SM BKN045=

USA.gov is the U.S. government's official web portal to all federal, state and local government web resources and services.